createdAt,value
2022-09-30T00:00:10.832Z,4.20
2022-09-30T00:02:43.183Z,2.00
2022-09-30T00:05:16.499Z,4.00
2022-09-30T00:07:46.677Z,4.00
2022-09-30T00:10:18.079Z,4.20
2022-09-30T00:12:52.120Z,4.00
2022-09-30T00:15:25.544Z,5.00
2022-09-30T00:17:57.458Z,5.00
2022-09-30T00:20:29.262Z,5.25
2022-09-30T00:22:59.407Z,2.00
2022-09-30T00:25:31.966Z,4.50
2022-09-30T00:28:02.288Z,6.00
2022-09-30T00:30:31.610Z,4.00
2022-09-30T00:33:03.345Z,4.50
2022-09-30T00:35:33.508Z,4.50
2022-09-30T00:38:06.675Z,4.00
2022-09-30T00:40:40.547Z,5.00
2022-09-30T00:43:39.944Z,6.00
2022-09-30T00:46:33.657Z,7.25
2022-09-30T00:49:14.342Z,4.00
2022-09-30T00:51:51.504Z,5.00
2022-09-30T00:54:32.181Z,5.00
2022-09-30T00:57:10.868Z,5.25
2022-09-30T00:59:46.697Z,3.75
2022-09-30T01:02:19.975Z,5.00
2022-09-30T01:04:50.647Z,5.75
2022-09-30T01:07:22.525Z,5.25
2022-09-30T01:09:54.875Z,6.25
2022-09-30T01:12:30.173Z,5.00
2022-09-30T01:15:02.439Z,4.50
2022-09-30T01:17:43.366Z,5.00
2022-09-30T01:20:12.690Z,5.00
2022-09-30T01:23:05.040Z,6.00
2022-09-30T01:26:11.412Z,4.25
2022-09-30T01:29:04.227Z,3.00
2022-09-30T01:31:55.650Z,4.25
2022-09-30T01:35:06.501Z,4.00
2022-09-30T01:38:03.402Z,3.25
2022-09-30T01:40:54.636Z,4.00
2022-09-30T01:43:49.695Z,4.00
2022-09-30T01:46:38.674Z,4.25
2022-09-30T01:49:36.663Z,4.00
2022-09-30T01:52:42.398Z,3.75
2022-09-30T01:55:27.040Z,4.75
2022-09-30T01:58:14.821Z,4.00
2022-09-30T02:00:53.138Z,4.25
2022-09-30T02:03:28.687Z,4.00
2022-09-30T02:06:03.417Z,4.25
2022-09-30T02:09:12.825Z,2.00
2022-09-30T02:11:44.824Z,4.00
2022-09-30T02:14:41.118Z,5.00
2022-09-30T02:17:24.538Z,5.00
2022-09-30T02:20:12.029Z,3.00
2022-09-30T02:23:28.382Z,4.50
2022-09-30T02:26:13.369Z,5.25
2022-09-30T02:29:05.338Z,4.00
2022-09-30T02:31:40.268Z,3.00
2022-09-30T02:34:22.187Z,5.50
2022-09-30T02:37:20.243Z,4.00
2022-09-30T02:40:03.775Z,5.00
2022-09-30T02:42:35.444Z,6.00
2022-09-30T02:45:14.577Z,4.25
2022-09-30T02:48:33.134Z,4.75
2022-09-30T02:51:34.983Z,4.50
2022-09-30T02:54:24.824Z,5.75
2022-09-30T02:57:20.106Z,5.00
2022-09-30T02:59:53.682Z,5.75
2022-09-30T03:02:25.984Z,5.00
2022-09-30T03:04:56.461Z,4.00
2022-09-30T03:07:29.721Z,5.00
2022-09-30T03:10:00.540Z,4.00
2022-09-30T03:12:43.840Z,5.00
2022-09-30T03:15:45.884Z,5.00
2022-09-30T03:18:30.774Z,5.00
2022-09-30T03:21:49.677Z,5.00
2022-09-30T03:24:36.284Z,5.75
2022-09-30T03:27:15.937Z,3.25
2022-09-30T03:30:02.245Z,6.00
2022-09-30T03:32:51.688Z,6.75
2022-09-30T03:35:54.866Z,4.25
2022-09-30T03:38:55.680Z,5.00
2022-09-30T03:41:38.177Z,5.25
2022-09-30T03:44:23.561Z,7.50
2022-09-30T03:47:17.318Z,5.00
2022-09-30T03:50:04.176Z,7.00
2022-09-30T03:52:38.847Z,5.75
2022-09-30T03:55:14.418Z,6.00
2022-09-30T03:57:46.068Z,7.25
2022-09-30T04:00:16.659Z,7.00
2022-09-30T04:02:47.775Z,5.50
2022-09-30T04:05:22.720Z,6.75
2022-09-30T04:07:52.640Z,6.00
2022-09-30T04:10:26.138Z,7.00
2022-09-30T04:13:00.755Z,6.75
2022-09-30T04:15:32.836Z,8.00
2022-09-30T04:18:05.761Z,8.00
2022-09-30T04:20:35.625Z,6.00
2022-09-30T04:23:06.437Z,3.50
2022-09-30T04:25:37.642Z,7.50
2022-09-30T04:28:10.787Z,7.25
2022-09-30T04:30:41.703Z,7.00
2022-09-30T04:33:14.667Z,7.50
2022-09-30T04:35:49.281Z,7.00
2022-09-30T04:38:22.000Z,7.00
2022-09-30T04:40:58.842Z,8.00
2022-09-30T04:43:30.318Z,7.75
2022-09-30T04:46:00.350Z,8.00
2022-09-30T04:48:32.722Z,8.50
2022-09-30T04:51:03.734Z,8.00
2022-09-30T04:53:35.089Z,7.50
2022-09-30T04:56:06.679Z,7.50
2022-09-30T04:58:37.278Z,8.25
2022-09-30T05:01:15.094Z,6.00
2022-09-30T05:03:46.115Z,8.25
2022-09-30T05:06:17.081Z,8.00
2022-09-30T05:08:49.415Z,7.50
2022-09-30T05:11:21.120Z,7.00
2022-09-30T05:13:52.715Z,8.25
2022-09-30T05:16:24.338Z,8.75
2022-09-30T05:18:54.537Z,7.50
2022-09-30T05:21:28.713Z,6.75
2022-09-30T05:23:59.297Z,9.00
2022-09-30T05:26:31.495Z,9.00
2022-09-30T05:29:02.486Z,7.25
2022-09-30T05:31:34.625Z,8.50
2022-09-30T05:34:05.740Z,8.75
2022-09-30T05:36:37.264Z,8.00
2022-09-30T05:39:07.647Z,8.75
2022-09-30T05:41:38.865Z,7.25
2022-09-30T05:44:12.352Z,6.75
2022-09-30T05:46:49.925Z,8.50
2022-09-30T05:49:21.657Z,9.00
2022-09-30T05:51:51.953Z,8.00
2022-09-30T05:54:22.183Z,5.00
2022-09-30T05:56:57.510Z,4.25
2022-09-30T05:59:27.868Z,7.00
2022-09-30T06:01:58.558Z,7.25
2022-09-30T06:04:29.865Z,7.25
2022-09-30T06:07:01.100Z,9.00
2022-09-30T06:09:35.675Z,7.00
2022-09-30T06:12:09.781Z,8.25
2022-09-30T06:14:40.311Z,6.50
2022-09-30T06:17:10.033Z,8.25
2022-09-30T06:19:41.953Z,7.25
2022-09-30T06:22:11.752Z,8.25
2022-09-30T06:24:43.316Z,8.25
2022-09-30T06:27:15.044Z,8.00
2022-09-30T06:29:48.421Z,9.00
2022-09-30T06:32:19.224Z,3.75
2022-09-30T06:34:48.819Z,5.25
2022-09-30T06:37:19.844Z,7.25
2022-09-30T06:39:50.141Z,7.25
2022-09-30T06:42:22.009Z,8.50
2022-09-30T06:44:53.761Z,8.25
2022-09-30T06:47:25.892Z,7.25
2022-09-30T06:50:00.328Z,7.75
2022-09-30T06:52:31.060Z,7.25
2022-09-30T06:55:00.783Z,5.00
2022-09-30T06:57:33.240Z,8.50
2022-09-30T07:00:03.011Z,8.00
2022-09-30T07:02:35.958Z,5.25
2022-09-30T07:05:07.606Z,7.00
2022-09-30T07:07:43.541Z,8.25
2022-09-30T07:10:15.872Z,9.00
2022-09-30T07:12:47.285Z,8.00
2022-09-30T07:15:21.775Z,7.00
2022-09-30T07:18:02.963Z,8.25
2022-09-30T07:20:34.503Z,7.25
2022-09-30T07:23:05.539Z,6.50
2022-09-30T07:25:37.864Z,9.00
2022-09-30T07:28:07.216Z,8.00
2022-09-30T07:30:38.952Z,7.25
2022-09-30T07:33:08.836Z,8.50
2022-09-30T07:35:38.874Z,8.75
2022-09-30T07:38:09.807Z,8.75
2022-09-30T07:40:43.843Z,8.00
2022-09-30T07:43:18.516Z,7.75
2022-09-30T07:45:50.341Z,7.25
2022-09-30T07:48:56.323Z,7.75
2022-09-30T07:51:38.126Z,7.50
2022-09-30T07:54:37.384Z,7.50
2022-09-30T07:57:11.747Z,7.75
2022-09-30T07:59:44.600Z,10.00
2022-09-30T08:02:20.466Z,8.00
2022-09-30T08:04:51.556Z,9.00
2022-09-30T08:07:25.703Z,7.00
2022-09-30T08:09:56.154Z,9.75
2022-09-30T08:12:26.950Z,9.25
2022-09-30T08:14:58.002Z,8.00
2022-09-30T08:17:28.669Z,9.00
2022-09-30T08:20:00.866Z,6.00
2022-09-30T08:22:30.697Z,8.00
2022-09-30T08:25:00.333Z,7.00
2022-09-30T08:27:30.007Z,7.50
2022-09-30T08:30:04.738Z,8.75
2022-09-30T08:32:34.540Z,8.75
2022-09-30T08:35:04.879Z,9.00
2022-09-30T08:37:36.285Z,8.25
2022-09-30T08:40:06.770Z,8.00
2022-09-30T08:43:04.599Z,8.00
2022-09-30T08:46:11.967Z,7.75
2022-09-30T08:48:42.026Z,6.00
2022-09-30T08:51:29.732Z,6.00
2022-09-30T08:54:03.822Z,6.75
2022-09-30T08:56:36.107Z,7.50
2022-09-30T08:59:27.816Z,7.00
2022-09-30T09:02:35.017Z,6.00
2022-09-30T09:05:10.504Z,6.25
2022-09-30T09:07:55.461Z,7.00
2022-09-30T09:11:09.751Z,7.50
2022-09-30T09:14:03.115Z,7.50
2022-09-30T09:16:50.597Z,6.75
2022-09-30T09:19:27.304Z,4.25
2022-09-30T09:22:05.625Z,6.75
2022-09-30T09:24:49.112Z,7.25
2022-09-30T09:27:51.452Z,6.00
2022-09-30T09:30:31.503Z,5.00
2022-09-30T09:33:19.543Z,5.25
2022-09-30T09:35:56.723Z,6.25
2022-09-30T09:38:37.130Z,6.00
2022-09-30T09:41:28.633Z,6.50
2022-09-30T09:44:29.219Z,5.25
2022-09-30T09:47:17.419Z,5.50
2022-09-30T09:50:05.369Z,4.00
2022-09-30T09:52:44.941Z,3.00
2022-09-30T09:55:18.887Z,4.25
2022-09-30T09:58:05.848Z,6.00
2022-09-30T10:00:48.614Z,5.00
2022-09-30T10:03:23.822Z,4.00
2022-09-30T10:06:05.849Z,5.00
2022-09-30T10:08:42.118Z,4.00
2022-09-30T10:11:23.979Z,3.25
2022-09-30T10:13:59.541Z,4.25
2022-09-30T10:16:39.788Z,4.00
2022-09-30T10:19:29.675Z,4.75
2022-09-30T10:22:13.702Z,4.25
2022-09-30T10:24:46.511Z,4.00
2022-09-30T10:27:33.217Z,4.50
2022-09-30T10:30:03.639Z,4.33
2022-09-30T10:32:39.513Z,3.25
2022-09-30T10:35:23.879Z,3.50
2022-09-30T10:37:56.938Z,4.00
2022-09-30T10:40:30.915Z,3.25
2022-09-30T10:43:01.193Z,4.00
2022-09-30T10:45:39.261Z,5.67
2022-09-30T10:48:17.851Z,4.00
2022-09-30T10:51:02.051Z,5.00
2022-09-30T10:53:37.221Z,3.25
2022-09-30T10:56:08.416Z,4.50
2022-09-30T10:59:03.013Z,4.75
2022-09-30T11:01:41.661Z,4.33
2022-09-30T11:04:35.680Z,3.50
2022-09-30T11:07:27.481Z,4.00
2022-09-30T11:10:13.609Z,3.00
2022-09-30T11:13:00.177Z,4.50
2022-09-30T11:15:48.825Z,3.00
2022-09-30T11:18:35.822Z,5.00
2022-09-30T11:21:46.623Z,3.67
2022-09-30T11:24:41.584Z,4.33
2022-09-30T11:27:20.889Z,5.00
2022-09-30T11:30:20.466Z,4.00
2022-09-30T11:33:24.258Z,5.33
2022-09-30T11:36:02.195Z,4.00
2022-09-30T11:39:08.485Z,5.00
2022-09-30T11:41:47.074Z,4.00
2022-09-30T11:44:35.321Z,4.00
2022-09-30T11:47:30.962Z,3.33
2022-09-30T11:50:21.917Z,5.33
2022-09-30T11:53:15.846Z,5.00
2022-09-30T11:56:22.276Z,5.67
2022-09-30T11:58:56.100Z,4.00
2022-09-30T12:01:39.498Z,5.00
2022-09-30T12:04:23.696Z,4.67
2022-09-30T12:07:05.800Z,4.00
2022-09-30T12:10:06.354Z,4.33
2022-09-30T12:12:37.859Z,3.00
2022-09-30T12:15:10.799Z,3.00
2022-09-30T12:17:51.925Z,5.00
2022-09-30T12:20:45.075Z,4.67
2022-09-30T12:23:22.435Z,4.67
2022-09-30T12:25:59.229Z,4.00
2022-09-30T12:29:23.493Z,4.00
2022-09-30T12:32:12.316Z,4.00
2022-09-30T12:35:02.855Z,4.67
2022-09-30T12:37:51.891Z,4.33
2022-09-30T12:40:52.085Z,5.67
2022-09-30T12:43:42.762Z,4.00
2022-09-30T12:46:19.464Z,6.00
2022-09-30T12:49:04.552Z,3.00
2022-09-30T12:51:41.777Z,4.00
2022-09-30T12:54:22.157Z,5.00
2022-09-30T12:57:01.868Z,3.67
2022-09-30T12:59:54.371Z,3.00
2022-09-30T13:02:38.984Z,4.00
2022-09-30T13:05:34.062Z,4.33
2022-09-30T13:08:08.388Z,5.00
2022-09-30T13:10:51.118Z,3.33
2022-09-30T13:13:25.980Z,5.00
2022-09-30T13:16:07.957Z,3.33
2022-09-30T13:18:37.043Z,5.67
2022-09-30T13:21:11.351Z,3.00
2022-09-30T13:23:43.680Z,3.67
2022-09-30T13:26:30.293Z,4.00
2022-09-30T13:29:04.680Z,1.33
2022-09-30T13:31:56.795Z,4.00
2022-09-30T13:34:33.703Z,3.33
2022-09-30T13:37:37.982Z,4.00
2022-09-30T13:40:18.614Z,2.67
2022-09-30T13:42:56.753Z,4.00
2022-09-30T13:45:44.564Z,5.00
2022-09-30T13:48:21.824Z,3.67
2022-09-30T13:50:54.728Z,5.00
2022-09-30T13:53:29.655Z,4.33
2022-09-30T13:56:03.207Z,6.00
2022-09-30T13:59:07.071Z,3.33
2022-09-30T14:01:58.479Z,3.00
2022-09-30T14:05:17.153Z,3.00
2022-09-30T14:08:10.640Z,2.00
2022-09-30T14:11:07.143Z,2.00
2022-09-30T14:14:22.563Z,3.00
2022-09-30T14:17:06.033Z,2.00
2022-09-30T14:20:01.494Z,0.00
2022-09-30T14:22:32.316Z,2.67
2022-09-30T14:25:04.053Z,3.00
2022-09-30T14:27:51.240Z,2.00
2022-09-30T14:30:25.488Z,3.00
2022-09-30T14:32:59.152Z,3.67
2022-09-30T14:35:32.782Z,1.75
2022-09-30T14:38:04.944Z,4.00
2022-09-30T14:40:42.338Z,3.00
2022-09-30T14:43:18.972Z,1.00
2022-09-30T14:46:00.306Z,3.00
2022-09-30T14:48:47.781Z,3.00
2022-09-30T14:51:23.564Z,2.00
2022-09-30T14:54:02.923Z,4.00
2022-09-30T14:56:37.496Z,2.25
2022-09-30T14:59:37.060Z,3.00
2022-09-30T15:02:21.783Z,2.25
2022-09-30T15:05:01.133Z,3.00
2022-09-30T15:07:32.004Z,2.50
2022-09-30T15:10:04.034Z,2.00
2022-09-30T15:12:40.199Z,3.75
2022-09-30T15:15:27.254Z,3.00
2022-09-30T15:17:57.626Z,3.25
2022-09-30T15:20:35.354Z,2.25
2022-09-30T15:23:18.515Z,3.00
2022-09-30T15:25:50.013Z,3.00
2022-09-30T15:28:22.381Z,3.00
2022-09-30T15:30:58.864Z,2.75
2022-09-30T15:33:33.581Z,1.00
2022-09-30T15:36:07.279Z,2.25
2022-09-30T15:38:39.926Z,2.50
2022-09-30T15:41:14.571Z,2.75
2022-09-30T15:43:56.359Z,3.00
2022-09-30T15:46:35.227Z,3.00
2022-09-30T15:49:29.706Z,2.00
2022-09-30T15:52:43.903Z,3.00
2022-09-30T15:56:01.172Z,2.25
2022-09-30T15:58:39.559Z,2.50
2022-09-30T16:01:26.285Z,2.75
2022-09-30T16:04:21.487Z,2.25
2022-09-30T16:07:27.065Z,3.00
2022-09-30T16:09:59.916Z,3.25
2022-09-30T16:12:35.194Z,3.00
2022-09-30T16:15:16.888Z,2.75
2022-09-30T16:17:52.230Z,3.00
2022-09-30T16:20:26.363Z,3.00
2022-09-30T16:22:57.477Z,3.50
2022-09-30T16:25:31.482Z,3.00
2022-09-30T16:28:13.817Z,2.00
2022-09-30T16:30:48.245Z,2.75
2022-09-30T16:33:19.987Z,2.00
2022-09-30T16:35:49.842Z,2.25
2022-09-30T16:38:22.279Z,2.75
2022-09-30T16:40:53.117Z,1.00
2022-09-30T16:43:28.201Z,4.00
2022-09-30T16:46:00.826Z,3.00
2022-09-30T16:48:35.651Z,4.00
2022-09-30T16:51:18.139Z,3.25
2022-09-30T16:53:50.752Z,2.75
2022-09-30T16:56:24.032Z,3.25
2022-09-30T16:58:55.968Z,4.00
2022-09-30T17:01:27.711Z,3.50
2022-09-30T17:04:00.193Z,4.00
2022-09-30T17:06:32.499Z,4.00
2022-09-30T17:09:05.684Z,4.50
2022-09-30T17:11:39.675Z,5.00
2022-09-30T17:14:11.378Z,3.25
2022-09-30T17:16:41.872Z,4.75
2022-09-30T17:19:16.020Z,4.00
2022-09-30T17:21:51.268Z,5.00
2022-09-30T17:24:23.700Z,5.00
2022-09-30T17:26:54.577Z,4.00
2022-09-30T17:29:33.101Z,4.25
2022-09-30T17:32:06.955Z,4.00
2022-09-30T17:34:42.276Z,4.50
2022-09-30T17:37:15.402Z,4.50
2022-09-30T17:39:46.601Z,5.00
2022-09-30T17:42:36.547Z,0.75
2022-09-30T17:45:09.858Z,5.00
2022-09-30T17:47:43.167Z,4.25
2022-09-30T17:50:15.824Z,4.00
2022-09-30T17:52:45.714Z,5.00
2022-09-30T17:55:19.137Z,5.00
2022-09-30T17:57:49.479Z,5.00
2022-09-30T18:00:21.559Z,5.00
2022-09-30T18:02:55.389Z,5.75
2022-09-30T18:05:26.414Z,4.00
2022-09-30T18:07:58.645Z,4.00
2022-09-30T18:10:31.196Z,5.00
2022-09-30T18:13:02.851Z,5.50
2022-09-30T18:15:34.150Z,4.00
2022-09-30T18:18:05.992Z,5.00
2022-09-30T18:20:36.702Z,5.00
2022-09-30T18:23:06.124Z,5.00
2022-09-30T18:25:37.407Z,5.00
2022-09-30T18:28:10.674Z,5.00
2022-09-30T18:30:41.881Z,4.00
2022-09-30T18:33:15.072Z,4.00
2022-09-30T18:35:48.045Z,4.00
2022-09-30T18:38:17.669Z,3.50
2022-09-30T18:40:48.002Z,4.75
2022-09-30T18:43:19.356Z,5.25
2022-09-30T18:45:57.816Z,5.75
2022-09-30T18:48:28.760Z,6.00
2022-09-30T18:51:04.263Z,5.25
2022-09-30T18:53:35.245Z,4.25
2022-09-30T18:56:06.533Z,4.00
2022-09-30T18:58:37.449Z,5.00
2022-09-30T19:01:08.479Z,3.75
2022-09-30T19:03:42.021Z,5.25
2022-09-30T19:06:11.866Z,5.00
2022-09-30T19:08:42.596Z,5.00
2022-09-30T19:11:18.544Z,3.50
2022-09-30T19:13:49.861Z,3.00
2022-09-30T19:16:20.860Z,5.50
2022-09-30T19:18:51.156Z,5.00
2022-09-30T19:21:23.580Z,5.50
2022-09-30T19:23:53.145Z,3.00
2022-09-30T19:26:23.120Z,3.50
2022-09-30T19:28:54.641Z,4.00
2022-09-30T19:31:25.396Z,5.50
2022-09-30T19:33:58.292Z,4.50
2022-09-30T19:36:28.844Z,4.75
2022-09-30T19:39:11.528Z,5.75
2022-09-30T19:41:42.694Z,8.00
2022-09-30T19:44:19.481Z,5.00
2022-09-30T19:46:53.428Z,5.00
2022-09-30T19:49:25.977Z,5.25
2022-09-30T19:51:56.280Z,6.00
2022-09-30T19:54:38.567Z,6.75
2022-09-30T19:57:14.911Z,5.75
2022-09-30T19:59:45.290Z,6.25
2022-09-30T20:02:17.561Z,6.25
2022-09-30T20:04:48.957Z,5.50
2022-09-30T20:07:18.816Z,6.75
2022-09-30T20:09:55.911Z,6.50
2022-09-30T20:12:30.558Z,6.00
2022-09-30T20:15:20.585Z,5.00
2022-09-30T20:17:50.800Z,6.75
2022-09-30T20:20:37.382Z,7.50
2022-09-30T20:23:08.936Z,6.00
2022-09-30T20:25:46.563Z,7.00
2022-09-30T20:28:17.398Z,6.00
2022-09-30T20:30:48.387Z,6.25
2022-09-30T20:33:21.533Z,6.25
2022-09-30T20:35:51.455Z,6.00
2022-09-30T20:38:25.434Z,7.75
2022-09-30T20:40:57.719Z,5.75
2022-09-30T20:43:31.530Z,7.25
2022-09-30T20:46:06.975Z,5.75
2022-09-30T20:48:39.432Z,7.25
2022-09-30T20:51:11.449Z,7.00
2022-09-30T20:53:44.510Z,7.00
2022-09-30T20:56:21.594Z,7.75
2022-09-30T20:58:54.229Z,6.25
2022-09-30T21:01:25.463Z,7.00
2022-09-30T21:03:56.344Z,6.75
2022-09-30T21:06:29.236Z,7.50
2022-09-30T21:09:04.129Z,7.25
2022-09-30T21:11:35.859Z,6.75
2022-09-30T21:14:08.708Z,7.00
2022-09-30T21:16:42.117Z,8.00
2022-09-30T21:19:13.042Z,6.00
2022-09-30T21:21:43.961Z,7.00
2022-09-30T21:24:16.985Z,5.50
2022-09-30T21:26:54.861Z,8.25
2022-09-30T21:29:28.058Z,6.00
2022-09-30T21:31:58.617Z,5.75
2022-09-30T21:34:32.656Z,7.75
2022-09-30T21:37:03.378Z,6.25
2022-09-30T21:39:33.323Z,8.00
2022-09-30T21:42:05.733Z,6.25
2022-09-30T21:44:36.524Z,7.00
2022-09-30T21:47:06.810Z,5.75
2022-09-30T21:49:39.160Z,6.50
2022-09-30T21:52:10.820Z,6.50
2022-09-30T21:54:42.634Z,6.50
2022-09-30T21:57:14.221Z,4.00
2022-09-30T21:59:50.352Z,6.00
2022-09-30T22:02:20.607Z,6.00
2022-09-30T22:04:51.356Z,6.00
2022-09-30T22:07:26.320Z,6.00
2022-09-30T22:09:57.602Z,6.50
2022-09-30T22:12:35.335Z,6.00
2022-09-30T22:15:06.961Z,6.25
2022-09-30T22:17:38.791Z,4.75
2022-09-30T22:20:10.899Z,7.00
2022-09-30T22:22:41.667Z,6.75
2022-09-30T22:25:12.863Z,6.75
2022-09-30T22:27:46.336Z,6.25
2022-09-30T22:30:17.469Z,7.00
2022-09-30T22:32:47.259Z,6.00
2022-09-30T22:35:38.682Z,5.50
2022-09-30T22:38:16.279Z,7.00
2022-09-30T22:40:47.467Z,5.00
2022-09-30T22:43:18.102Z,6.00
2022-09-30T22:45:48.588Z,6.25
2022-09-30T22:48:18.978Z,6.00
2022-09-30T22:50:49.446Z,5.50
2022-09-30T22:53:20.165Z,6.25
2022-09-30T22:55:55.269Z,7.00
2022-09-30T22:58:26.041Z,6.00
2022-09-30T23:01:00.487Z,6.00
2022-09-30T23:03:33.614Z,6.00
2022-09-30T23:06:06.247Z,6.00
2022-09-30T23:08:44.792Z,6.75
2022-09-30T23:11:17.592Z,5.75
2022-09-30T23:13:58.131Z,6.00
2022-09-30T23:16:29.366Z,5.00
2022-09-30T23:18:59.767Z,4.50
2022-09-30T23:21:30.376Z,6.25
2022-09-30T23:24:02.774Z,5.00
2022-09-30T23:26:36.449Z,4.25
2022-09-30T23:29:09.214Z,5.50
2022-09-30T23:31:39.629Z,6.00
2022-09-30T23:34:09.789Z,2.75
2022-09-30T23:36:43.656Z,5.00
2022-09-30T23:39:21.010Z,5.75
2022-09-30T23:41:52.563Z,5.00
2022-09-30T23:44:23.314Z,4.00
2022-09-30T23:47:31.699Z,4.25
2022-09-30T23:50:02.119Z,5.75
2022-09-30T23:52:33.770Z,5.00
2022-09-30T23:55:04.922Z,5.50
2022-09-30T23:57:34.706Z,5.75
